Keatchie, Louisiana
Current Conditions -  °F | °C
As of 6:15 PM on Saturday 22 Nov 2014 (Local Time) from KSHV Reporting Station
Broken Clouds Broken Clouds  
Wind Chill: 66°   Ceiling: 2600
Heat Index: 66°   Visibility: 10mi
Dew Point: 58°   Wind: 7mph
Humidity: 75%   Direction: 120°ESE
Pressure: 29.89"   Gusts: NA
Location:  32.19°N, 93.91°W
Report Text: KSHV 230015Z 12006KT 10SM BKN026 BKN090 19/14 A2989 RMK AO2 T01890144
Loading
Personal Weather Stations






























Interactive Weather Map New forecast layout! Learn more

10-Day Weather Forecast

Advertisements
Track Severe Weather on mobile